Time;durP1;ratioP1;P1;durP2;ratioP2;P2;SDS_P1;SDS_P2;PMS_P1;PMS_P2;Temp;Humidity;BMP_temperature;BMP_pressure;BME280_temperature;BME280_humidity;BME280_pressure;Samples;Min_cycle;Max_cycle;Signal;HPM_P1;HPM_P2
2023/04/17 00:00:05;;;;;;;;;;;;;;;20.00;41.33;102567.97;5132716;27;19915;-73
2023/04/17 00:02:30;;;;;;;;;;;;;;;19.97;41.15;102563.72;5133861;27;19971;-73
2023/04/17 00:04:55;;;;;;;;;;;;;;;19.97;41.20;102569.13;5134048;27;19911;-73
2023/04/17 00:07:21;;;;;;;;;;;;;;;19.96;41.40;102572.78;5138044;27;19916;-73
2023/04/17 00:09:47;;;;;;;;;;;;;;;19.95;41.40;102571.94;5130966;27;19935;-73
2023/04/17 00:12:12;;;;;;;;;;;;;;;19.93;41.13;102565.84;5114370;27;19927;-73
2023/04/17 00:14:37;;;;;;;;;;;;;;;19.92;41.30;102563.25;5131058;27;20421;-73
2023/04/17 00:17:02;;;;;;;;;;;;;;;19.92;41.29;102564.13;5134040;27;19912;-73
2023/04/17 00:19:27;;;;;;;;;;;;;;;19.91;41.17;102570.50;5131561;27;20013;-73
2023/04/17 00:21:52;;;;;;;;;;;;;;;19.90;41.26;102562.53;5131845;27;19911;-73
2023/04/17 00:24:17;;;;;;;;;;;;;;;19.89;41.37;102571.63;5128806;27;20313;-73
2023/04/17 00:26:43;;;;;;;;;;;;;;;19.89;41.10;102568.94;5126214;27;19923;-74
2023/04/17 00:29:08;;;;;;;;;;;;;;;19.87;41.55;102571.75;5115909;27;19947;-74
2023/04/17 00:31:33;;;;;;;;;;;;;;;19.86;41.45;102567.34;5130917;27;19911;-73
2023/04/17 00:34:00;;;;;;;;;;;;;;;19.86;41.15;102561.09;5137669;27;19911;-72
2023/04/17 00:36:26;;;;;;;;;;;;;;;19.85;41.32;102568.34;5131106;27;19945;-73
2023/04/17 00:38:51;;;;;;;;;;;;;;;19.84;41.34;102568.50;5115277;27;19970;-73
2023/04/17 00:41:16;;;;;;;;;;;;;;;19.83;41.29;102566.75;5134183;27;19911;-73
2023/04/17 00:43:41;;;;;;;;;;;;;;;19.82;41.48;102567.75;5130770;27;19919;-73
2023/04/17 00:46:07;;;;;;;;;;;;;;;19.80;41.49;102562.50;5111086;28;19973;-73
2023/04/17 00:48:32;;;;;;;;;;;;;;;19.80;41.43;102567.06;5113665;27;19962;-73
2023/04/17 00:51:01;;;;;;;;;;;;;;;19.79;41.27;102565.31;5112850;28;19912;-73
2023/04/17 00:53:26;;;;;;;;;;;;;;;19.77;41.33;102562.75;5111111;28;19915;-73
2023/04/17 00:55:51;;;;;;;;;;;;;;;19.77;41.62;102568.16;5134129;27;19960;-73
2023/04/17 00:58:17;;;;;;;;;;;;;;;19.77;41.50;102567.31;5109885;28;20045;-73
2023/04/17 01:00:42;;;;;;;;;;;;;;;19.75;41.34;102563.88;5126566;28;19956;-73
2023/04/17 01:03:07;;;;;;;;;;;;;;;19.74;41.36;102565.72;5124580;28;19973;-74
2023/04/17 01:05:34;;;;;;;;;;;;;;;19.73;41.32;102561.31;5132037;28;20383;-73
2023/04/17 01:07:59;;;;;;;;;;;;;;;19.71;41.61;102572.25;5118033;28;19955;-73
2023/04/17 01:10:24;;;;;;;;;;;;;;;19.71;41.42;102566.00;5112348;28;19923;-74
2023/04/17 01:13:16;;;;;;;;;;;;;;;19.70;41.54;102564.28;5130045;28;20599;-73
2023/04/17 01:15:41;;;;;;;;;;;;;;;19.67;41.31;102570.81;5124726;28;19920;-73
2023/04/17 01:18:07;;;;;;;;;;;;;;;19.67;41.40;102578.06;5132074;28;19915;-73
2023/04/17 01:20:32;;;;;;;;;;;;;;;19.67;41.58;102576.22;5130867;28;19920;-73
2023/04/17 01:22:58;;;;;;;;;;;;;;;19.66;41.57;102581.72;5133603;28;19911;-73
2023/04/17 01:25:24;;;;;;;;;;;;;;;19.65;41.35;102574.63;5110417;28;20365;-73
2023/04/17 01:27:49;;;;;;;;;;;;;;;19.64;41.39;102579.16;5120150;28;19915;-73
2023/04/17 01:30:15;;;;;;;;;;;;;;;19.63;41.58;102582.00;5133483;28;19943;-73
2023/04/17 01:32:40;;;;;;;;;;;;;;;19.62;41.35;102581.13;5112534;28;19916;-73
2023/04/17 01:35:05;;;;;;;;;;;;;;;19.61;41.63;102583.97;5136417;28;20447;-73
2023/04/17 01:37:30;;;;;;;;;;;;;;;19.59;41.44;102581.38;5130209;28;19918;-73
2023/04/17 01:39:57;;;;;;;;;;;;;;;19.59;41.70;102584.09;5114129;28;19922;-73
2023/04/17 01:42:22;;;;;;;;;;;;;;;19.58;41.35;102590.47;5129568;28;19912;-73
2023/04/17 01:44:47;;;;;;;;;;;;;;;19.57;41.62;102586.03;5129792;27;20382;-73
2023/04/17 01:47:12;;;;;;;;;;;;;;;19.56;41.47;102589.75;5129957;28;20356;-73
2023/04/17 01:49:37;;;;;;;;;;;;;;;19.56;41.58;102591.59;5134911;27;19915;-73
2023/04/17 01:52:03;;;;;;;;;;;;;;;19.56;41.56;102594.28;5129567;28;19912;-73
2023/04/17 01:54:28;;;;;;;;;;;;;;;19.55;41.76;102595.28;5132185;28;20292;-73
2023/04/17 01:56:53;;;;;;;;;;;;;;;19.53;41.47;102590.00;5134536;28;19937;-73
2023/04/17 01:59:18;;;;;;;;;;;;;;;19.52;41.49;102590.13;5133435;27;19979;-73
2023/04/17 02:01:44;;;;;;;;;;;;;;;19.51;41.70;102591.97;5143146;27;19955;-72
2023/04/17 02:04:09;;;;;;;;;;;;;;;19.50;41.58;102598.38;5133730;27;19912;-73
2023/04/17 02:06:34;;;;;;;;;;;;;;;19.49;41.48;102594.78;5133226;27;19920;-73
2023/04/17 02:08:59;;;;;;;;;;;;;;;19.49;41.63;102594.78;5136680;27;20007;-74
2023/04/17 02:11:25;;;;;;;;;;;;;;;19.48;41.64;102601.19;5133571;27;19911;-74
2023/04/17 02:13:50;;;;;;;;;;;;;;;19.47;41.37;102595.94;5133739;27;20006;-73
2023/04/17 02:16:15;;;;;;;;;;;;;;;19.46;41.56;102599.63;5116545;27;19920;-74
2023/04/17 02:18:40;;;;;;;;;;;;;;;19.46;41.79;102603.16;5134700;27;19916;-73
2023/04/17 02:21:06;;;;;;;;;;;;;;;19.44;41.57;102597.03;5119833;27;19915;-73
2023/04/17 02:23:31;;;;;;;;;;;;;;;19.43;41.60;102598.03;5138466;27;19916;-73
2023/04/17 02:25:56;;;;;;;;;;;;;;;19.42;41.63;102604.41;5132372;27;19937;-73
2023/04/17 02:28:21;;;;;;;;;;;;;;;19.42;41.73;102599.03;5141168;27;19912;-73
2023/04/17 02:30:47;;;;;;;;;;;;;;;19.40;41.68;102592.88;5136319;27;20037;-74
2023/04/17 02:33:12;;;;;;;;;;;;;;;19.39;41.63;102596.56;5132510;27;20421;-73
2023/04/17 02:35:37;;;;;;;;;;;;;;;19.39;41.84;102596.56;5138158;27;19922;-73
2023/04/17 02:38:02;;;;;;;;;;;;;;;19.39;41.76;102596.56;5114889;27;19911;-74
2023/04/17 02:40:28;;;;;;;;;;;;;;;19.37;41.50;102590.47;5116608;27;19912;-72
2023/04/17 02:42:53;;;;;;;;;;;;;;;19.37;41.78;102595.88;5132576;27;19912;-73
2023/04/17 02:45:18;;;;;;;;;;;;;;;19.35;41.72;102592.44;5135044;27;19911;-73
2023/04/17 02:47:43;;;;;;;;;;;;;;;19.35;41.79;102597.81;5134273;27;20011;-73
2023/04/17 02:50:09;;;;;;;;;;;;;;;19.34;41.77;102593.41;5138882;27;19912;-73
2023/04/17 02:52:34;;;;;;;;;;;;;;;19.34;41.93;102592.56;5114555;27;19987;-73
2023/04/17 02:54:59;;;;;;;;;;;;;;;19.32;41.63;102595.38;5135845;27;19920;-73
2023/04/17 02:57:24;;;;;;;;;;;;;;;19.32;41.81;102597.22;5119956;27;19915;-73
2023/04/17 02:59:50;;;;;;;;;;;;;;;19.30;41.75;102589.28;5133425;27;19977;-72
2023/04/17 03:02:20;;;;;;;;;;;;;;;19.30;41.73;102597.38;5101769;27;19919;-74
2023/04/17 03:04:47;;;;;;;;;;;;;;;19.30;41.82;102591.13;5108809;28;20011;-74
2023/04/17 03:07:13;;;;;;;;;;;;;;;19.29;41.57;102594.81;5131099;27;19963;-73
2023/04/17 03:09:38;;;;;;;;;;;;;;;19.29;41.85;102600.19;5133040;27;20002;-74
2023/04/17 03:12:04;;;;;;;;;;;;;;;19.28;41.73;102598.47;5114714;27;20446;-74
2023/04/17 03:14:30;;;;;;;;;;;;;;;19.27;41.90;102596.75;5132006;27;19912;-73
2023/04/17 03:16:55;;;;;;;;;;;;;;;19.26;41.74;102609.41;5134614;27;19920;-73
2023/04/17 03:19:20;;;;;;;;;;;;;;;19.25;41.74;102605.00;5133909;27;19975;-73
2023/04/17 03:21:45;;;;;;;;;;;;;;;19.25;41.55;102605.00;5132013;27;19927;-72
2023/04/17 03:24:11;;;;;;;;;;;;;;;19.23;41.76;102602.41;5139366;27;19937;-73
2023/04/17 03:26:36;;;;;;;;;;;;;;;19.23;41.85;102609.66;5131247;27;19937;-74
2023/04/17 03:29:04;;;;;;;;;;;;;;;19.22;42.07;102605.25;5139284;27;19911;-74
2023/04/17 03:31:30;;;;;;;;;;;;;;;19.21;42.05;102608.94;5133230;27;19912;-74
2023/04/17 03:33:55;;;;;;;;;;;;;;;19.20;41.78;102601.84;5126635;27;19967;-73
2023/04/17 03:36:20;;;;;;;;;;;;;;;19.20;41.74;102604.53;5133982;27;19930;-74
2023/04/17 03:38:45;;;;;;;;;;;;;;;19.19;41.84;102603.66;5131516;27;19915;-74
2023/04/17 03:41:10;;;;;;;;;;;;;;;19.18;41.77;102606.50;5131241;27;19963;-73
2023/04/17 03:43:36;;;;;;;;;;;;;;;19.17;41.95;102607.47;5132326;27;20318;-73
2023/04/17 03:46:01;;;;;;;;;;;;;;;19.16;42.01;102603.94;5134644;27;19916;-73
2023/04/17 03:48:26;;;;;;;;;;;;;;;19.16;41.95;102600.38;5132656;27;19916;-74
2023/04/17 03:50:51;;;;;;;;;;;;;;;19.14;41.79;102605.88;5121270;27;19918;-74
2023/04/17 03:53:16;;;;;;;;;;;;;;;19.14;41.98;102597.78;5131557;27;19915;-73
2023/04/17 03:55:41;;;;;;;;;;;;;;;19.13;41.86;102596.09;5138612;27;19919;-74
2023/04/17 03:58:07;;;;;;;;;;;;;;;19.13;42.06;102606.03;5135017;27;19919;-74
2023/04/17 04:00:32;;;;;;;;;;;;;;;19.12;42.02;102604.31;5134000;27;20018;-73
2023/04/17 04:02:57;;;;;;;;;;;;;;;19.11;41.96;102599.88;5133042;27;19927;-73
2023/04/17 04:05:22;;;;;;;;;;;;;;;19.10;42.05;102601.72;5124632;27;19915;-73
2023/04/17 04:07:47;;;;;;;;;;;;;;;19.09;41.94;102597.34;5129909;27;19924;-74
2023/04/17 04:10:13;;;;;;;;;;;;;;;19.11;42.00;102607.97;5130866;27;19925;-75
2023/04/17 04:12:38;;;;;;;;;;;;;;;19.09;42.03;102605.44;5132982;27;19924;-74
2023/04/17 04:15:03;;;;;;;;;;;;;;;19.09;42.14;102601.88;5130452;27;19915;-74
2023/04/17 04:17:29;;;;;;;;;;;;;;;19.08;41.98;102603.72;5134749;27;19916;-73
2023/04/17 04:19:54;;;;;;;;;;;;;;;19.09;42.21;102609.97;5133414;27;19933;-75
2023/04/17 04:22:20;;;;;;;;;;;;;;;19.07;42.33;102610.06;5127252;27;20276;-73
2023/04/17 04:24:46;;;;;;;;;;;;;;;19.08;42.12;102608.25;5134415;27;19987;-74
2023/04/17 04:27:11;;;;;;;;;;;;;;;19.08;42.56;102600.16;5130225;27;19912;-73
2023/04/17 04:29:37;;;;;;;;;;;;;;;19.07;42.18;102606.53;5113566;27;19911;-74
2023/04/17 04:32:08;;;;;;;;;;;;;;;19.07;42.30;102601.97;5129840;27;19922;-70
2023/04/17 04:34:35;;;;;;;;;;;;;;;19.08;42.80;102605.56;5131519;27;19912;-73
2023/04/17 04:37:01;;;;;;;;;;;;;;;19.07;43.01;102610.06;5129904;27;19965;-73
2023/04/17 04:39:28;;;;;;;;;;;;;;;19.08;43.12;102608.25;5129692;27;19938;-70
2023/04/17 04:41:54;;;;;;;;;;;;;;;19.09;43.00;102610.81;5132799;27;19975;-69
2023/04/17 04:44:20;;;;;;;;;;;;;;;19.10;43.04;102614.38;5128490;27;19923;-70
2023/04/17 04:46:45;;;;;;;;;;;;;;;19.09;43.25;102612.66;5131836;27;19919;-69
2023/04/17 04:49:10;;;;;;;;;;;;;;;19.09;43.14;102613.50;5133725;27;19911;-70
2023/04/17 04:51:36;;;;;;;;;;;;;;;19.09;43.28;102618.91;5134763;27;19912;-70
2023/04/17 04:54:01;;;;;;;;;;;;;;;19.10;43.69;102622.44;5133601;27;19915;-70
2023/04/17 04:56:26;;;;;;;;;;;;;;;19.10;43.52;102620.59;5130620;27;19983;-72
2023/04/17 04:58:52;;;;;;;;;;;;;;;19.10;43.59;102627.84;5129847;28;19918;-71
2023/04/17 05:01:17;;;;;;;;;;;;;;;19.10;43.64;102627.84;5129318;28;19912;-69
2023/04/17 05:03:43;;;;;;;;;;;;;;;19.10;43.58;102625.16;5130485;28;19922;-73
2023/04/17 05:06:10;;;;;;;;;;;;;;;19.11;43.39;102629.53;5109469;28;19920;-72
2023/04/17 05:08:35;;;;;;;;;;;;;;;19.11;43.39;102626.84;5112622;28;20007;-74
2023/04/17 05:11:00;;;;;;;;;;;;;;;19.11;43.55;102634.94;5116910;28;19919;-73
2023/04/17 05:13:25;;;;;;;;;;;;;;;19.10;43.27;102634.09;5129496;28;19975;-73
2023/04/17 05:15:51;;;;;;;;;;;;;;;19.09;43.64;102635.06;5133550;28;19920;-72
2023/04/17 05:18:16;;;;;;;;;;;;;;;19.09;43.56;102632.38;5134418;28;19915;-72
2023/04/17 05:20:41;;;;;;;;;;;;;;;19.10;43.75;102641.31;5132350;27;19954;-71
2023/04/17 05:23:06;;;;;;;;;;;;;;;19.11;43.65;102634.94;5131435;28;19919;-73
2023/04/17 05:25:31;;;;;;;;;;;;;;;19.09;43.84;102632.38;5130778;28;19916;-73
2023/04/17 05:27:56;;;;;;;;;;;;;;;19.10;43.78;102636.78;5129669;28;19912;-70
2023/04/17 05:30:22;;;;;;;;;;;;;;;19.09;43.76;102640.47;5129036;28;19916;-70
2023/04/17 05:32:47;;;;;;;;;;;;;;;19.09;43.95;102651.25;5130791;27;19915;-69
2023/04/17 05:35:12;;;;;;;;;;;;;;;19.10;43.71;102654.81;5133235;27;19919;-69
2023/04/17 05:37:37;;;;;;;;;;;;;;;19.10;43.86;102660.19;5136368;27;20196;-69
2023/04/17 05:40:05;;;;;;;;;;;;;;;19.09;43.64;102659.34;5133249;27;19943;-69
2023/04/17 05:42:30;;;;;;;;;;;;;;;19.10;43.59;102665.59;5133078;27;19937;-71
2023/04/17 05:44:55;;;;;;;;;;;;;;;19.09;43.80;102659.34;5136401;27;19912;-71
2023/04/17 05:47:21;;;;;;;;;;;;;;;19.09;43.89;102667.44;5119996;27;19903;-71
2023/04/17 05:49:47;;;;;;;;;;;;;;;19.09;43.66;102667.44;5137228;27;19958;-72
2023/04/17 05:52:12;;;;;;;;;;;;;;;19.09;43.91;102663.88;5135215;27;19976;-73
2023/04/17 05:54:37;;;;;;;;;;;;;;;19.09;43.67;102670.13;5134856;27;19979;-73
2023/04/17 05:57:03;;;;;;;;;;;;;;;19.09;43.51;102666.59;5135197;27;20399;-72
2023/04/17 05:59:28;;;;;;;;;;;;;;;19.08;43.89;102665.72;5133352;27;19964;-72
2023/04/17 06:01:53;;;;;;;;;;;;;;;19.08;43.65;102665.72;5132283;27;19912;-70
2023/04/17 06:04:18;;;;;;;;;;;;;;;19.08;43.82;102672.97;5132622;27;19911;-70
2023/04/17 06:06:43;;;;;;;;;;;;;;;19.09;43.69;102669.28;5132963;27;19980;-71
2023/04/17 06:09:09;;;;;;;;;;;;;;;19.08;43.62;102668.44;5133859;27;19912;-70
2023/04/17 06:11:35;;;;;;;;;;;;;;;19.08;43.78;102676.50;5130570;27;19916;-72
2023/04/17 06:14:00;;;;;;;;;;;;;;;19.07;43.66;102674.78;5138912;27;19997;-72
2023/04/17 06:16:25;;;;;;;;;;;;;;;19.07;43.77;102673.91;5131655;27;19916;-71
2023/04/17 06:18:51;;;;;;;;;;;;;;;19.07;43.63;102679.31;5139249;27;19965;-72
2023/04/17 06:21:16;;;;;;;;;;;;;;;19.06;43.39;102681.16;5133571;27;19947;-69
2023/04/17 06:23:41;;;;;;;;;;;;;;;19.07;43.63;102679.31;5133791;27;19993;-70
2023/04/17 06:26:06;;;;;;;;;;;;;;;19.06;43.67;102685.69;5135066;27;19950;-71
2023/04/17 06:28:31;;;;;;;;;;;;;;;19.04;43.23;102685.84;5133330;27;20296;-70
2023/04/17 06:30:56;;;;;;;;;;;;;;;19.05;43.46;102694.78;5132853;27;20360;-71
2023/04/17 06:33:22;;;;;;;;;;;;;;;19.05;43.33;102697.47;5130639;27;19915;-69
2023/04/17 06:35:47;;;;;;;;;;;;;;;19.05;43.55;102692.06;5131867;27;19954;-69
2023/04/17 06:38:12;;;;;;;;;;;;;;;19.05;43.28;102701.03;5133715;27;19918;-69
2023/04/17 06:40:37;;;;;;;;;;;;;;;19.06;43.59;102700.03;5135103;27;19912;-71
2023/04/17 06:43:03;;;;;;;;;;;;;;;19.06;43.44;102702.72;5132996;27;19941;-71
2023/04/17 06:45:28;;;;;;;;;;;;;;;19.07;43.39;102700.88;5137098;27;19915;-71
2023/04/17 06:47:53;;;;;;;;;;;;;;;19.06;43.19;102708.13;5135933;27;19933;-70
2023/04/17 06:50:18;;;;;;;;;;;;;;;19.07;43.10;102708.97;5134950;27;19922;-71
2023/04/17 06:52:43;;;;;;;;;;;;;;;19.08;43.08;102711.56;5132584;27;20180;-69
2023/04/17 06:55:09;;;;;;;;;;;;;;;19.08;43.20;102708.88;5131575;27;19965;-71
2023/04/17 06:57:34;;;;;;;;;;;;;;;19.09;43.15;102712.41;5132266;27;19915;-71
2023/04/17 06:59:59;;;;;;;;;;;;;;;19.09;43.13;102710.56;5133736;27;19916;-71
2023/04/17 07:02:25;;;;;;;;;;;;;;;19.09;43.24;102710.56;5131349;27;19915;-71
2023/04/17 07:04:50;;;;;;;;;;;;;;;19.11;42.90;102718.53;5112534;27;19923;-71
2023/04/17 07:07:15;;;;;;;;;;;;;;;19.11;42.86;102723.91;5134857;27;19918;-71
2023/04/17 07:09:41;;;;;;;;;;;;;;;19.12;42.85;102722.94;5119690;27;19920;-72
2023/04/17 07:12:07;;;;;;;;;;;;;;;19.12;42.94;102731.91;5138823;27;20480;-72
2023/04/17 07:14:32;;;;;;;;;;;;;;;19.14;42.98;102729.91;5134709;27;19912;-72
2023/04/17 07:16:57;;;;;;;;;;;;;;;19.15;42.77;102731.63;5131178;27;19919;-72
2023/04/17 07:19:22;;;;;;;;;;;;;;;19.16;42.72;102733.34;5132881;27;19998;-71
2023/04/17 07:21:48;;;;;;;;;;;;;;;19.17;42.75;102726.13;5113945;28;19916;-72
2023/04/17 07:24:13;;;;;;;;;;;;;;;19.18;42.89;102731.38;5111360;27;19919;-72
2023/04/17 07:26:39;;;;;;;;;;;;;;;19.19;42.96;102730.38;5132902;27;19918;-70
2023/04/17 07:29:04;;;;;;;;;;;;;;;19.22;42.82;102732.00;5133376;27;19915;-71
2023/04/17 07:31:29;;;;;;;;;;;;;;;19.22;42.58;102738.22;5130307;27;19927;-72
2023/04/17 07:33:55;;;;;;;;;;;;;;;19.24;42.50;102740.78;5138181;27;19920;-70
2023/04/17 07:36:20;;;;;;;;;;;;;;;19.25;42.41;102741.69;5115669;27;20283;-71
2023/04/17 07:38:45;;;;;;;;;;;;;;;19.27;42.67;102747.78;5134189;27;19916;-71
2023/04/17 07:41:11;;;;;;;;;;;;;;;19.28;42.69;102744.94;5138252;27;19974;-71
2023/04/17 07:43:36;;;;;;;;;;;;;;;19.30;42.43;102742.16;5136035;27;19937;-72
2023/04/17 07:46:01;;;;;;;;;;;;;;;19.31;42.42;102739.31;5137950;27;19915;-71
2023/04/17 07:48:26;;;;;;;;;;;;;;;19.34;42.47;102743.59;5116074;27;19912;-72
2023/04/17 07:50:52;;;;;;;;;;;;;;;19.35;42.34;102740.78;5138744;27;19915;-70
2023/04/17 07:53:17;;;;;;;;;;;;;;;19.39;42.45;102744.06;5134857;27;19911;-71
2023/04/17 07:55:42;;;;;;;;;;;;;;;19.41;42.34;102734.88;5131928;27;19924;-72
2023/04/17 07:58:08;;;;;;;;;;;;;;;19.43;42.24;102742.84;5116968;27;20348;-71
2023/04/17 08:00:33;;;;;;;;;;;;;;;19.46;42.38;102753.38;5130615;27;19911;-71
2023/04/17 08:02:58;;;;;;;;;;;;;;;19.49;42.25;102747.72;5133050;27;20016;-72
2023/04/17 08:05:23;;;;;;;;;;;;;;;19.51;42.14;102744.91;5132944;27;19918;-71
2023/04/17 08:07:49;;;;;;;;;;;;;;;19.53;42.27;102749.16;5135669;27;19912;-70
2023/04/17 08:10:14;;;;;;;;;;;;;;;19.56;42.06;102753.47;5133423;27;19916;-71
2023/04/17 08:12:40;;;;;;;;;;;;;;;19.59;42.33;102747.81;5135341;27;19920;-69
2023/04/17 08:15:05;;;;;;;;;;;;;;;19.61;42.30;102746.72;5131306;27;19919;-70
2023/04/17 08:17:30;;;;;;;;;;;;;;;19.64;42.11;102749.19;5129891;27;19919;-70
2023/04/17 08:20:00;;;;;;;;;;;;;;;19.67;42.27;102745.38;5133343;27;19912;-70
2023/04/17 08:22:27;;;;;;;;;;;;;;;19.70;42.15;102743.25;5132240;27;19916;-71
2023/04/17 08:24:56;;;;;;;;;;;;;;;19.73;42.10;102744.84;5130764;27;19974;-70
2023/04/17 08:27:21;;;;;;;;;;;;;;;19.77;41.96;102746.28;5133669;27;19915;-71
2023/04/17 08:29:46;;;;;;;;;;;;;;;19.80;42.24;102745.19;5131473;27;19947;-70
2023/04/17 08:32:11;;;;;;;;;;;;;;;19.83;41.97;102744.91;5116703;27;19954;-70
2023/04/17 08:34:37;;;;;;;;;;;;;;;19.85;42.08;102748.34;5133773;27;19986;-70
2023/04/17 08:37:02;;;;;;;;;;;;;;;19.88;41.93;102748.94;5130932;27;19915;-69
2023/04/17 08:39:28;;;;;;;;;;;;;;;19.92;42.06;102755.81;5129873;27;19973;-70
2023/04/17 08:42:00;;;;;;;;;;;;;;;19.95;41.79;102751.97;5133489;27;20077;-70
2023/04/17 08:44:25;;;;;;;;;;;;;;;19.97;42.07;102758.97;5121232;27;19924;-70
2023/04/17 08:46:51;;;;;;;;;;;;;;;20.00;42.10;102747.03;5126607;27;20012;-69
2023/04/17 08:49:16;;;;;;;;;;;;;;;20.04;42.01;102747.63;5112946;27;19964;-69
2023/04/17 08:51:41;;;;;;;;;;;;;;;20.07;41.67;102750.06;5133737;27;20632;-71
2023/04/17 08:54:06;;;;;;;;;;;;;;;20.09;41.95;102745.38;5128319;27;19911;-69
2023/04/17 08:56:32;;;;;;;;;;;;;;;20.12;41.89;102750.53;5130965;27;19916;-70
2023/04/17 08:58:57;;;;;;;;;;;;;;;20.13;41.78;102753.09;5131889;27;19912;-70
2023/04/17 09:01:22;;;;;;;;;;;;;;;20.16;41.77;102757.38;5131096;28;19986;-70
2023/04/17 09:03:48;;;;;;;;;;;;;;;20.19;41.54;102759.81;5110996;28;19979;-71
2023/04/17 09:06:13;;;;;;;;;;;;;;;20.21;41.47;102757.81;5131049;28;19922;-71
2023/04/17 09:08:39;;;;;;;;;;;;;;;20.23;41.40;102761.28;5122733;27;19961;-70
2023/04/17 09:11:04;;;;;;;;;;;;;;;20.26;41.57;102765.53;5124205;27;19946;-71
2023/04/17 09:13:30;;;;;;;;;;;;;;;20.27;41.25;102768.13;5120435;27;19978;-69
2023/04/17 09:16:24;;;;;;;;;;;;;;;20.29;41.51;102766.13;5118404;27;19924;-70
2023/04/17 09:18:49;;;;;;;;;;;;;;;20.29;41.50;102762.56;5135210;27;19912;-70
2023/04/17 09:21:17;;;;;;;;;;;;;;;20.31;41.43;102772.28;5136667;27;19922;-70
2023/04/17 09:23:45;;;;;;;;;;;;;;;20.33;41.15;102764.03;5134811;27;19918;-70
2023/04/17 09:26:14;;;;;;;;;;;;;;;20.36;41.30;102770.03;5134195;27;19946;-70
2023/04/17 09:28:40;;;;;;;;;;;;;;;20.37;41.43;102770.88;5125786;27;19916;-70
2023/04/17 09:31:06;;;;;;;;;;;;;;;20.37;41.28;102760.91;5138473;27;20787;-70
2023/04/17 09:33:31;;;;;;;;;;;;;;;20.38;41.27;102768.03;5108909;27;19940;-70
2023/04/17 09:36:29;;;;;;;;;;;;;;;20.40;41.25;102767.91;5121100;27;19916;-70
2023/04/17 09:38:55;;;;;;;;;;;;;;;20.41;41.26;102765.06;5104491;27;19919;-71
2023/04/17 09:41:24;;;;;;;;;;;;;;;20.43;41.11;102762.22;5136418;27;19975;-71
2023/04/17 09:43:52;;;;;;;;;;;;;;;20.43;41.08;102757.69;5118013;27;19915;-70
2023/04/17 09:46:30;;;;;;;;;;;;;;;20.45;40.88;102762.97;5117197;28;19916;-71
2023/04/17 09:48:55;;;;;;;;;;;;;;;20.47;41.16;102766.38;5127782;27;19943;-71
2023/04/17 09:51:20;;;;;;;;;;;;;;;20.49;40.83;102763.59;5134223;27;19937;-70
2023/04/17 09:53:45;;;;;;;;;;;;;;;20.51;41.17;102761.59;5113192;28;19912;-70
2023/04/17 09:56:12;;;;;;;;;;;;;;;20.52;40.99;102769.59;5124176;27;19922;-70
2023/04/17 09:58:38;;;;;;;;;;;;;;;20.54;41.06;102766.72;5135746;27;19915;-72
2023/04/17 10:01:03;;;;;;;;;;;;;;;20.55;40.83;102755.78;5135109;27;19931;-70
2023/04/17 10:03:28;;;;;;;;;;;;;;;20.57;40.86;102758.38;5118018;27;19919;-70
2023/04/17 10:05:53;;;;;;;;;;;;;;;20.58;40.77;102750.13;5134729;27;19916;-70
2023/04/17 10:08:18;;;;;;;;;;;;;;;20.61;41.12;102757.09;5140356;27;19911;-71
2023/04/17 10:10:43;;;;;;;;;;;;;;;20.62;41.13;102756.09;5136334;27;19922;-70
2023/04/17 10:13:10;;;;;;;;;;;;;;;20.63;41.02;102757.81;5115683;28;19984;-70
2023/04/17 10:15:35;;;;;;;;;;;;;;;20.67;40.98;102754.69;5114381;27;19924;-70
2023/04/17 10:18:20;;;;;;;;;;;;;;;20.70;40.85;102757.16;5112752;27;19915;-70
2023/04/17 10:20:47;;;;;;;;;;;;;;;20.74;40.86;102746.91;5111295;28;19912;-71
2023/04/17 10:23:45;;;;;;;;;;;;;;;20.74;40.70;102751.47;5111325;28;19958;-70
2023/04/17 10:26:25;;;;;;;;;;;;;;;20.74;41.00;102755.03;5106711;28;19947;-71
2023/04/17 10:28:52;;;;;;;;;;;;;;;20.74;40.94;102746.91;5117597;28;19912;-70
2023/04/17 10:31:17;;;;;;;;;;;;;;;20.74;41.03;102746.91;5113350;28;20006;-70
2023/04/17 10:33:46;;;;;;;;;;;;;;;20.77;40.73;102751.19;5114408;28;19916;-70
2023/04/17 10:36:18;;;;;;;;;;;;;;;20.78;40.97;102745.66;5115573;28;20038;-70
2023/04/17 10:38:43;;;;;;;;;;;;;;;20.80;40.86;102738.25;5111129;28;19934;-71
2023/04/17 10:41:09;;;;;;;;;;;;;;;20.82;40.72;102735.44;5111762;28;20652;-70
2023/04/17 10:43:38;;;;;;;;;;;;;;;20.83;40.71;102731.72;5113962;28;19943;-70
2023/04/17 10:46:04;;;;;;;;;;;;;;;20.84;40.63;102741.53;5114699;28;19915;-71
2023/04/17 10:48:31;;;;;;;;;;;;;;;20.84;40.80;102738.84;5113019;28;19958;-70
2023/04/17 10:50:57;;;;;;;;;;;;;;;20.86;40.68;102734.16;5118137;27;19916;-70
2023/04/17 10:53:42;;;;;;;;;;;;;;;20.88;40.96;102732.16;5113238;28;19923;-71
2023/04/17 10:56:08;;;;;;;;;;;;;;;20.85;40.62;102730.56;5110731;28;19920;-69
2023/04/17 10:58:36;;;;;;;;;;;;;;;20.86;40.70;102732.31;5111830;28;20003;-70
2023/04/17 11:01:02;;;;;;;;;;;;;;;20.87;40.92;102733.16;5115547;27;19976;-71
2023/04/17 11:03:27;;;;;;;;;;;;;;;20.88;41.01;102733.00;5114076;28;19920;-70
2023/04/17 11:05:52;;;;;;;;;;;;;;;20.88;40.95;102732.16;5099448;28;19912;-71
2023/04/17 11:08:17;;;;;;;;;;;;;;;20.88;40.69;102727.59;5110870;27;20422;-70
2023/04/17 11:10:42;;;;;;;;;;;;;;;20.89;40.95;102728.47;5110706;28;19933;-71
2023/04/17 11:13:08;;;;;;;;;;;;;;;20.91;41.14;102732.75;5110570;28;20391;-70
2023/04/17 11:15:34;;;;;;;;;;;;;;;20.93;41.15;102728.03;5112490;28;19926;-71
2023/04/17 11:17:59;;;;;;;;;;;;;;;20.94;41.02;102727.06;5113270;28;19912;-71
2023/04/17 11:20:25;;;;;;;;;;;;;;;20.95;40.98;102728.78;5109596;28;20003;-71
2023/04/17 11:22:51;;;;;;;;;;;;;;;20.96;41.03;102726.94;5108543;28;19912;-71
2023/04/17 11:25:20;;;;;;;;;;;;;;;20.95;41.14;102723.38;5114262;28;19923;-71
2023/04/17 11:27:45;;;;;;;;;;;;;;;20.96;41.34;102726.94;5110893;28;19948;-71
2023/04/17 11:30:11;;;;;;;;;;;;;;;20.99;41.22;102725.81;5117748;28;19945;-74
2023/04/17 11:32:36;;;;;;;;;;;;;;;21.01;41.68;102729.22;5112938;28;19919;-72
2023/04/17 11:35:03;;;;;;;;;;;;;;;21.02;41.57;102730.91;5109657;28;20392;-73
2023/04/17 11:37:28;;;;;;;;;;;;;;;21.03;41.69;102732.66;5115740;28;20002;-73
2023/04/17 11:39:53;;;;;;;;;;;;;;;21.03;41.95;102729.94;5111534;28;19961;-72
2023/04/17 11:42:25;;;;;;;;;;;;;;;21.04;41.74;102727.09;5109115;28;19977;-73
2023/04/17 11:44:51;;;;;;;;;;;;;;;21.07;41.62;102725.94;5110879;27;19916;-73
2023/04/17 11:47:16;;;;;;;;;;;;;;;21.10;41.57;102728.38;5111928;28;19919;-73
2023/04/17 11:49:41;;;;;;;;;;;;;;;21.13;41.59;102722.69;5110372;28;19912;-69
2023/04/17 11:52:06;;;;;;;;;;;;;;;21.15;41.84;102732.41;5111560;28;19911;-69
2023/04/17 11:54:38;;;;;;;;;;;;;;;21.16;41.50;102725.97;5109984;28;19947;-69
2023/04/17 11:57:05;;;;;;;;;;;;;;;21.18;41.79;102726.69;5118325;28;19920;-69
2023/04/17 11:59:30;;;;;;;;;;;;;;;21.19;41.58;102728.38;5113572;28;20421;-69
2023/04/17 12:01:55;;;;;;;;;;;;;;;21.20;41.50;102731.97;5112692;28;19942;-69
2023/04/17 12:04:20;;;;;;;;;;;;;;;21.20;41.36;102727.41;5112463;28;19969;-69
2023/04/17 12:06:46;;;;;;;;;;;;;;;21.22;41.66;102725.41;5108005;28;19919;-70
2023/04/17 12:09:17;;;;;;;;;;;;;;;21.22;41.51;102725.41;5111857;28;19919;-68
2023/04/17 12:11:42;;;;;;;;;;;;;;;21.23;41.34;102727.09;5111369;28;20326;-69
2023/04/17 12:14:10;;;;;;;;;;;;;;;21.25;41.37;102723.44;5111267;28;19928;-69
2023/04/17 12:16:35;;;;;;;;;;;;;;;21.25;41.22;102724.28;5112778;28;19923;-69
2023/04/17 12:19:03;;;;;;;;;;;;;;;21.25;41.24;102727.00;5111240;28;20444;-69
2023/04/17 12:21:28;;;;;;;;;;;;;;;21.28;41.30;102731.25;5112126;28;19923;-69
2023/04/17 12:23:53;;;;;;;;;;;;;;;21.29;41.33;102724.88;5111036;28;19916;-69
2023/04/17 12:26:18;;;;;;;;;;;;;;;21.31;41.30;102725.56;5112081;28;19917;-69
2023/04/17 12:28:44;;;;;;;;;;;;;;;21.29;41.62;102723.00;5108870;28;19912;-68